EZY24RD EGNS-EDDM
Flight info
| Callsign | EZY24RD |
|---|---|
| Flight time | N/A |
| Altitude | 35000 |
| Route | TIMIS Q39 DANDI L28 PENIL L70 DESIG L603 LAMSO DCT EVELI DCT PODIP DCT KUMIK Y854 BOMBI T104 ROKIL |
| Aircraft | A320/M-SDE3FGHIRWY/LB1 |
Departure
| Time | 2026-05-09 10:24 |
|---|---|
| Airport | Isle of Man Airport (EGNS) |
Arrival
| Time | N/A |
|---|---|
| Airport | Munich Airport (EDDM) |
| Time | Latitude | Longitude | Altitude | Speed | Heading |
|---|---|---|---|---|---|
| 2026-05-09 09:45 | 54.08630 | -4.63267 | 45 ft | 0 kts | 224° |
| 2026-05-09 09:46 | 54.08630 | -4.63266 | 45 ft | 0 kts | 224° |
| 2026-05-09 09:54 | 54.08631 | -4.63266 | 44 ft | 0 kts | 224° |
| 2026-05-09 09:58 | 54.08631 | -4.63265 | 44 ft | 0 kts | 224° |
| 2026-05-09 10:09 | 54.08631 | -4.63264 | 44 ft | 0 kts | 224° |
| 2026-05-09 10:10 | 54.08630 | -4.63267 | 44 ft | 0 kts | 224° |
| 2026-05-09 10:11 | 54.08628 | -4.63270 | 44 ft | 0 kts | 224° |
| 2026-05-09 10:11 | 54.08637 | -4.63254 | 45 ft | 2 kts | 224° |
| 2026-05-09 10:11 | 54.08649 | -4.63235 | 45 ft | 2 kts | 221° |
| 2026-05-09 10:11 | 54.08663 | -4.63219 | 46 ft | 2 kts | 187° |
| 2026-05-09 10:12 | 54.08680 | -4.63221 | 45 ft | 3 kts | 152° |
| 2026-05-09 10:12 | 54.08692 | -4.63234 | 43 ft | 0 kts | 128° |
| 2026-05-09 10:15 | 54.08691 | -4.63232 | 44 ft | 1 kts | 128° |
| 2026-05-09 10:15 | 54.08687 | -4.63223 | 45 ft | 0 kts | 127° |
| 2026-05-09 10:16 | 54.08680 | -4.63206 | 43 ft | 5 kts | 127° |
| 2026-05-09 10:16 | 54.08659 | -4.63172 | 46 ft | 4 kts | 139° |
| 2026-05-09 10:16 | 54.08640 | -4.63145 | 46 ft | 3 kts | 141° |
| 2026-05-09 10:16 | 54.08614 | -4.63103 | 46 ft | 8 kts | 132° |
| 2026-05-09 10:17 | 54.08575 | -4.63040 | 46 ft | 7 kts | 151° |
| 2026-05-09 10:17 | 54.08525 | -4.63021 | 45 ft | 7 kts | 171° |
| 2026-05-09 10:17 | 54.08473 | -4.63001 | 44 ft | 8 kts | 167° |
| 2026-05-09 10:17 | 54.08428 | -4.62963 | 43 ft | 7 kts | 122° |
| 2026-05-09 10:18 | 54.08427 | -4.62897 | 44 ft | 4 kts | 78° |
| 2026-05-09 10:18 | 54.08432 | -4.62853 | 44 ft | 2 kts | 78° |
| 2026-05-09 10:18 | 54.08435 | -4.62827 | 45 ft | 5 kts | 78° |
| 2026-05-09 10:18 | 54.08447 | -4.62733 | 47 ft | 10 kts | 78° |
| 2026-05-09 10:19 | 54.08463 | -4.62605 | 48 ft | 13 kts | 77° |
| 2026-05-09 10:19 | 54.08485 | -4.62441 | 50 ft | 14 kts | 77° |
| 2026-05-09 10:19 | 54.08507 | -4.62268 | 48 ft | 16 kts | 78° |
| 2026-05-09 10:19 | 54.08534 | -4.62061 | 48 ft | 19 kts | 84° |
| 2026-05-09 10:20 | 54.08565 | -4.61826 | 46 ft | 21 kts | 80° |
| 2026-05-09 10:20 | 54.08595 | -4.61565 | 43 ft | 23 kts | 77° |
| 2026-05-09 10:20 | 54.08627 | -4.61304 | 43 ft | 14 kts | 79° |
| 2026-05-09 10:20 | 54.08643 | -4.61178 | 43 ft | 2 kts | 75° |
| 2026-05-09 10:21 | 54.08644 | -4.61178 | 43 ft | 0 kts | 75° |
| 2026-05-09 10:21 | 54.08661 | -4.61036 | 43 ft | 22 kts | 80° |
| 2026-05-09 10:21 | 54.08657 | -4.60846 | 41 ft | 15 kts | 119° |
| 2026-05-09 10:22 | 54.08576 | -4.60764 | 41 ft | 14 kts | 166° |
| 2026-05-09 10:22 | 54.08537 | -4.60758 | 40 ft | 0 kts | 199° |
| 2026-05-09 10:22 | 54.08529 | -4.60785 | 39 ft | 0 kts | 253° |
| 2026-05-09 10:22 | 54.08529 | -4.60786 | 41 ft | 0 kts | 255° |
| 2026-05-09 10:23 | 54.08504 | -4.60978 | 39 ft | 58 kts | 259° |
| 2026-05-09 10:23 | 54.08366 | -4.62160 | 42 ft | 143 kts | 255° |
| 2026-05-09 10:23 | 54.08126 | -4.64038 | 576 ft | 167 kts | 267° |
| 2026-05-09 10:24 | 54.08037 | -4.66019 | 1492 ft | 168 kts | 269° |
| 2026-05-09 10:24 | 54.07628 | -4.68058 | 1838 ft | 209 kts | 228° |
| 2026-05-09 10:24 | 54.06282 | -4.69109 | 2303 ft | 232 kts | 181° |
| 2026-05-09 10:24 | 54.04545 | -4.68761 | 2436 ft | 271 kts | 165° |
| 2026-05-09 10:25 | 54.02634 | -4.67724 | 2688 ft | 304 kts | 155° |
| 2026-05-09 10:25 | 54.00663 | -4.66022 | 2984 ft | 331 kts | 148° |
| 2026-05-09 10:25 | 53.98700 | -4.63923 | 4002 ft | 328 kts | 147° |
| 2026-05-09 10:25 | 53.96832 | -4.61921 | 5599 ft | 308 kts | 148° |
| 2026-05-09 10:26 | 53.95193 | -4.59754 | 7141 ft | 290 kts | 136° |
| 2026-05-09 10:26 | 53.93948 | -4.57149 | 8405 ft | 283 kts | 122° |
| 2026-05-09 10:26 | 53.93126 | -4.54096 | 9368 ft | 286 kts | 115° |
| 2026-05-09 10:26 | 53.92365 | -4.50957 | 10240 ft | 290 kts | 114° |
| 2026-05-09 10:27 | 53.91584 | -4.47701 | 10694 ft | 309 kts | 114° |
| 2026-05-09 10:27 | 53.90742 | -4.44195 | 10957 ft | 332 kts | 114° |
| 2026-05-09 10:27 | 53.89852 | -4.40475 | 11437 ft | 346 kts | 114° |
| 2026-05-09 10:27 | 53.88943 | -4.36663 | 12123 ft | 351 kts | 114° |
| 2026-05-09 10:28 | 53.88022 | -4.32795 | 12856 ft | 356 kts | 114° |
| 2026-05-09 10:28 | 53.87086 | -4.28874 | 13589 ft | 360 kts | 114° |
| 2026-05-09 10:28 | 53.86138 | -4.24923 | 14273 ft | 364 kts | 114° |
| 2026-05-09 10:28 | 53.85177 | -4.20922 | 14902 ft | 369 kts | 114° |
| 2026-05-09 10:29 | 53.84215 | -4.16925 | 15511 ft | 374 kts | 114° |
| 2026-05-09 10:29 | 53.83212 | -4.12775 | 16126 ft | 379 kts | 114° |
| 2026-05-09 10:29 | 53.82219 | -4.08678 | 16713 ft | 383 kts | 114° |
| 2026-05-09 10:29 | 53.81199 | -4.04478 | 17310 ft | 388 kts | 115° |
| 2026-05-09 10:30 | 53.80166 | -4.00231 | 17895 ft | 393 kts | 115° |
| 2026-05-09 10:30 | 53.79115 | -3.95917 | 18475 ft | 397 kts | 115° |
| 2026-05-09 10:30 | 53.78055 | -3.91577 | 18979 ft | 402 kts | 115° |
| 2026-05-09 10:30 | 53.76979 | -3.87194 | 19500 ft | 405 kts | 115° |
| 2026-05-09 10:31 | 53.75892 | -3.82786 | 20012 ft | 408 kts | 115° |
| 2026-05-09 10:31 | 53.74795 | -3.78348 | 20532 ft | 411 kts | 115° |
| 2026-05-09 10:31 | 53.73690 | -3.73870 | 21045 ft | 414 kts | 115° |
| 2026-05-09 10:31 | 53.72580 | -3.69359 | 21561 ft | 417 kts | 115° |
| 2026-05-09 10:32 | 53.71464 | -3.64822 | 22054 ft | 420 kts | 116° |
| 2026-05-09 10:32 | 53.70337 | -3.60259 | 22543 ft | 423 kts | 116° |
| 2026-05-09 10:32 | 53.69197 | -3.55658 | 23027 ft | 426 kts | 116° |
| 2026-05-09 10:32 | 53.68047 | -3.51035 | 23502 ft | 429 kts | 116° |
| 2026-05-09 10:33 | 53.66885 | -3.46380 | 23939 ft | 432 kts | 116° |
| 2026-05-09 10:33 | 53.65712 | -3.41693 | 24334 ft | 435 kts | 116° |
| 2026-05-09 10:33 | 53.64533 | -3.36988 | 24750 ft | 437 kts | 116° |
| 2026-05-09 10:33 | 53.63345 | -3.32258 | 25130 ft | 439 kts | 116° |
| 2026-05-09 10:34 | 53.62150 | -3.27513 | 25512 ft | 441 kts | 116° |
| 2026-05-09 10:34 | 53.59867 | -3.17868 | 26249 ft | 448 kts | 109° |
| 2026-05-09 10:34 | 53.59215 | -3.12701 | 26624 ft | 454 kts | 100° |
| 2026-05-09 10:35 | 53.58941 | -3.07376 | 26987 ft | 458 kts | 97° |
| 2026-05-09 10:35 | 53.58693 | -3.02022 | 27348 ft | 460 kts | 97° |
| 2026-05-09 10:35 | 53.58435 | -2.96643 | 27711 ft | 462 kts | 97° |
| 2026-05-09 10:35 | 53.58168 | -2.91231 | 28056 ft | 465 kts | 97° |
| 2026-05-09 10:36 | 53.57900 | -2.85875 | 28159 ft | 466 kts | 97° |
| 2026-05-09 10:36 | 53.57626 | -2.80445 | 28187 ft | 465 kts | 97° |
| 2026-05-09 10:36 | 53.57081 | -2.69694 | 28183 ft | 465 kts | 97° |
| 2026-05-09 10:37 | 53.56530 | -2.58856 | 28182 ft | 464 kts | 97° |
| 2026-05-09 10:37 | 53.55974 | -2.48039 | 28186 ft | 464 kts | 97° |
| 2026-05-09 10:38 | 53.55397 | -2.37226 | 28188 ft | 464 kts | 97° |
| 2026-05-09 10:38 | 53.54816 | -2.26450 | 28186 ft | 463 kts | 97° |
| 2026-05-09 10:39 | 53.54521 | -2.21028 | 28306 ft | 465 kts | 97° |
| 2026-05-09 10:39 | 53.54220 | -2.15596 | 28676 ft | 467 kts | 98° |
| 2026-05-09 10:39 | 53.53917 | -2.10170 | 29018 ft | 469 kts | 98° |
| 2026-05-09 10:39 | 53.53607 | -2.04676 | 29331 ft | 472 kts | 98° |
| 2026-05-09 10:40 | 53.53291 | -1.99176 | 29643 ft | 474 kts | 98° |
| 2026-05-09 10:40 | 53.52974 | -1.93652 | 29957 ft | 476 kts | 98° |
| 2026-05-09 10:40 | 53.52479 | -1.88154 | 30248 ft | 476 kts | 105° |
| 2026-05-09 10:40 | 53.51604 | -1.82810 | 30490 ft | 476 kts | 109° |
| 2026-05-09 10:41 | 53.50663 | -1.77457 | 30782 ft | 477 kts | 109° |
| 2026-05-09 10:41 | 53.49720 | -1.72123 | 31116 ft | 476 kts | 109° |
| 2026-05-09 10:41 | 53.48774 | -1.66787 | 31467 ft | 476 kts | 109° |
| 2026-05-09 10:41 | 53.47829 | -1.61467 | 31794 ft | 476 kts | 109° |
| 2026-05-09 10:42 | 53.46883 | -1.56149 | 32121 ft | 476 kts | 109° |
| 2026-05-09 10:42 | 53.45935 | -1.50843 | 32452 ft | 476 kts | 109° |
| 2026-05-09 10:42 | 53.44980 | -1.45528 | 32789 ft | 476 kts | 109° |
| 2026-05-09 10:42 | 53.44019 | -1.40209 | 33118 ft | 476 kts | 109° |
| 2026-05-09 10:43 | 53.43072 | -1.34975 | 33440 ft | 475 kts | 109° |
| 2026-05-09 10:43 | 53.42100 | -1.29614 | 33769 ft | 476 kts | 109° |
| 2026-05-09 10:43 | 53.41151 | -1.24372 | 34098 ft | 476 kts | 109° |
| 2026-05-09 10:43 | 53.40190 | -1.19062 | 34369 ft | 476 kts | 109° |
| 2026-05-09 10:44 | 53.39227 | -1.13762 | 34656 ft | 476 kts | 109° |
| 2026-05-09 10:44 | 53.38260 | -1.08461 | 34965 ft | 475 kts | 109° |
| 2026-05-09 10:44 | 53.37290 | -1.03176 | 35140 ft | 475 kts | 109° |
| 2026-05-09 10:44 | 53.36316 | -0.97895 | 35169 ft | 474 kts | 109° |
| 2026-05-09 10:46 | 53.31435 | -0.71635 | 35167 ft | 473 kts | 109° |
| 2026-05-09 10:46 | 53.29471 | -0.61138 | 35170 ft | 473 kts | 108° |
| 2026-05-09 10:47 | 53.27496 | -0.50662 | 35164 ft | 473 kts | 109° |
| 2026-05-09 10:47 | 53.25507 | -0.40200 | 35171 ft | 473 kts | 108° |
| 2026-05-09 10:48 | 53.23517 | -0.29739 | 35170 ft | 473 kts | 108° |
| 2026-05-09 10:48 | 53.21526 | -0.19287 | 35173 ft | 472 kts | 108° |
| 2026-05-09 10:49 | 53.19512 | -0.08840 | 35176 ft | 472 kts | 109° |
| 2026-05-09 10:49 | 53.17489 | 0.01571 | 35182 ft | 472 kts | 108° |
| 2026-05-09 10:50 | 53.15468 | 0.11982 | 35180 ft | 472 kts | 108° |
| 2026-05-09 10:50 | 53.13437 | 0.22364 | 35186 ft | 471 kts | 108° |
| 2026-05-09 10:51 | 53.11393 | 0.32737 | 35185 ft | 471 kts | 108° |
| 2026-05-09 10:51 | 53.09358 | 0.43017 | 35193 ft | 471 kts | 108° |
| 2026-05-09 10:52 | 53.07305 | 0.53344 | 35191 ft | 470 kts | 109° |
| 2026-05-09 10:52 | 53.05240 | 0.63652 | 35195 ft | 470 kts | 109° |
| 2026-05-09 10:53 | 53.03173 | 0.73945 | 35191 ft | 469 kts | 109° |
| 2026-05-09 10:53 | 53.01098 | 0.84219 | 35193 ft | 469 kts | 109° |
| 2026-05-09 10:54 | 52.99004 | 0.94469 | 35189 ft | 469 kts | 109° |
| 2026-05-09 10:54 | 52.97302 | 1.04894 | 35192 ft | 468 kts | 101° |
| 2026-05-09 10:55 | 52.96096 | 1.15507 | 35189 ft | 468 kts | 101° |
| 2026-05-09 10:55 | 52.94871 | 1.26114 | 35193 ft | 468 kts | 101° |
| 2026-05-09 10:56 | 52.93626 | 1.36687 | 35188 ft | 468 kts | 101° |
| 2026-05-09 10:56 | 52.92376 | 1.47268 | 35192 ft | 467 kts | 101° |
| 2026-05-09 10:57 | 52.91119 | 1.57821 | 35190 ft | 467 kts | 102° |
| 2026-05-09 10:57 | 52.89861 | 1.68298 | 35188 ft | 467 kts | 102° |
| 2026-05-09 10:58 | 52.88589 | 1.78848 | 35185 ft | 467 kts | 102° |
| 2026-05-09 10:58 | 52.87527 | 1.87598 | 35183 ft | 466 kts | 102° |
| 2026-05-09 10:59 | 52.86235 | 1.98113 | 35186 ft | 466 kts | 102° |
| 2026-05-09 10:59 | 52.84934 | 2.08619 | 35182 ft | 466 kts | 102° |
| 2026-05-09 11:00 | 52.83629 | 2.19131 | 35182 ft | 466 kts | 102° |
| 2026-05-09 11:00 | 52.82310 | 2.29629 | 35174 ft | 466 kts | 102° |
| 2026-05-09 11:01 | 52.80980 | 2.40123 | 35176 ft | 466 kts | 103° |
| 2026-05-09 11:01 | 52.79641 | 2.50611 | 35174 ft | 466 kts | 103° |
| 2026-05-09 11:02 | 52.78300 | 2.61094 | 35178 ft | 466 kts | 103° |
| 2026-05-09 11:02 | 52.76945 | 2.71558 | 35175 ft | 466 kts | 103° |
| 2026-05-09 11:03 | 52.75583 | 2.82015 | 35175 ft | 466 kts | 103° |
| 2026-05-09 11:03 | 52.74208 | 2.92455 | 35173 ft | 466 kts | 103° |
| 2026-05-09 11:04 | 52.72521 | 3.02757 | 35171 ft | 464 kts | 112° |
| 2026-05-09 11:04 | 52.70190 | 3.12667 | 35167 ft | 463 kts | 112° |
| 2026-05-09 11:05 | 52.67856 | 3.22565 | 35158 ft | 463 kts | 113° |
| 2026-05-09 11:05 | 52.65535 | 3.32388 | 35157 ft | 463 kts | 113° |
| 2026-05-09 11:06 | 52.62864 | 3.42052 | 35156 ft | 460 kts | 122° |
| 2026-05-09 11:06 | 52.59678 | 3.51079 | 35157 ft | 459 kts | 122° |
| 2026-05-09 11:07 | 52.56473 | 3.60155 | 35152 ft | 459 kts | 122° |
| 2026-05-09 11:07 | 52.53261 | 3.69237 | 35154 ft | 459 kts | 122° |
| 2026-05-09 11:08 | 52.50047 | 3.78290 | 35153 ft | 458 kts | 122° |
| 2026-05-09 11:08 | 52.46825 | 3.87314 | 35150 ft | 458 kts | 122° |
| 2026-05-09 11:09 | 52.43602 | 3.96306 | 35155 ft | 458 kts | 122° |
| 2026-05-09 11:09 | 52.40369 | 4.05310 | 35147 ft | 458 kts | 122° |
| 2026-05-09 11:10 | 52.37128 | 4.14299 | 35148 ft | 458 kts | 122° |
| 2026-05-09 11:10 | 52.33885 | 4.23246 | 35147 ft | 457 kts | 123° |
| 2026-05-09 11:11 | 52.30886 | 4.31514 | 35151 ft | 457 kts | 123° |
| 2026-05-09 11:11 | 52.27644 | 4.40424 | 35146 ft | 456 kts | 123° |
| 2026-05-09 11:12 | 52.24523 | 4.48942 | 35149 ft | 456 kts | 123° |
| 2026-05-09 11:12 | 52.21274 | 4.57819 | 35145 ft | 456 kts | 123° |
| 2026-05-09 11:13 | 52.18014 | 4.66690 | 35148 ft | 456 kts | 123° |
| 2026-05-09 11:13 | 52.14750 | 4.75523 | 35140 ft | 456 kts | 123° |
| 2026-05-09 11:14 | 52.11470 | 4.84348 | 35141 ft | 455 kts | 123° |
| 2026-05-09 11:14 | 52.08186 | 4.93164 | 35130 ft | 455 kts | 123° |
| 2026-05-09 11:15 | 52.04909 | 5.01946 | 35129 ft | 455 kts | 123° |
| 2026-05-09 11:15 | 52.01621 | 5.10720 | 35119 ft | 455 kts | 123° |
| 2026-05-09 11:16 | 51.98336 | 5.19474 | 35121 ft | 455 kts | 123° |
| 2026-05-09 11:16 | 51.95037 | 5.28234 | 35121 ft | 455 kts | 123° |
| 2026-05-09 11:17 | 51.91724 | 5.36984 | 35132 ft | 455 kts | 123° |
| 2026-05-09 11:17 | 51.88404 | 5.45723 | 35118 ft | 455 kts | 124° |
| 2026-05-09 11:18 | 51.85079 | 5.54443 | 35127 ft | 455 kts | 124° |
| 2026-05-09 11:18 | 51.81773 | 5.63091 | 35122 ft | 455 kts | 124° |
| 2026-05-09 11:19 | 51.78438 | 5.71790 | 35120 ft | 455 kts | 124° |
| 2026-05-09 11:19 | 51.75094 | 5.80474 | 35116 ft | 456 kts | 124° |
| 2026-05-09 11:20 | 51.71739 | 5.89155 | 35116 ft | 456 kts | 124° |
| 2026-05-09 11:20 | 51.68379 | 5.97826 | 35118 ft | 456 kts | 124° |
| 2026-05-09 11:21 | 51.65012 | 6.06484 | 35120 ft | 456 kts | 124° |
| 2026-05-09 11:21 | 51.61632 | 6.15132 | 35115 ft | 456 kts | 124° |
| 2026-05-09 11:22 | 51.58250 | 6.23770 | 35119 ft | 456 kts | 124° |
| 2026-05-09 11:22 | 51.54871 | 6.32393 | 35116 ft | 456 kts | 124° |
| 2026-05-09 11:23 | 51.53167 | 6.36770 | 35114 ft | 456 kts | 124° |
| 2026-05-09 11:23 | 51.49789 | 6.45331 | 35105 ft | 456 kts | 124° |
| 2026-05-09 11:24 | 51.46379 | 6.53890 | 35109 ft | 456 kts | 124° |
| 2026-05-09 11:24 | 51.42960 | 6.62460 | 35106 ft | 456 kts | 124° |
| 2026-05-09 11:25 | 51.39542 | 6.71023 | 35112 ft | 456 kts | 124° |
| 2026-05-09 11:25 | 51.36117 | 6.79582 | 35110 ft | 457 kts | 124° |
| 2026-05-09 11:26 | 51.32687 | 6.88129 | 35111 ft | 457 kts | 124° |
| 2026-05-09 11:26 | 51.29246 | 6.96674 | 35112 ft | 457 kts | 124° |
| 2026-05-09 11:27 | 51.25792 | 7.05222 | 35117 ft | 457 kts | 124° |
| 2026-05-09 11:27 | 51.22346 | 7.13729 | 35113 ft | 457 kts | 124° |
| 2026-05-09 11:28 | 51.18879 | 7.22250 | 35111 ft | 457 kts | 124° |
| 2026-05-09 11:28 | 51.15413 | 7.30763 | 35102 ft | 457 kts | 125° |
| 2026-05-09 11:29 | 51.11941 | 7.39245 | 35103 ft | 457 kts | 125° |
| 2026-05-09 11:29 | 51.08483 | 7.47658 | 35098 ft | 457 kts | 125° |
| 2026-05-09 11:30 | 51.04991 | 7.56119 | 35100 ft | 457 kts | 125° |
| 2026-05-09 11:30 | 51.01494 | 7.64572 | 35098 ft | 457 kts | 125° |
| 2026-05-09 11:31 | 50.97998 | 7.72996 | 35102 ft | 457 kts | 125° |
| 2026-05-09 11:31 | 50.94481 | 7.81444 | 35099 ft | 457 kts | 125° |
| 2026-05-09 11:32 | 50.90970 | 7.89858 | 35106 ft | 458 kts | 125° |
| 2026-05-09 11:32 | 50.87477 | 7.98207 | 35108 ft | 458 kts | 125° |
| 2026-05-09 11:33 | 50.83677 | 8.06271 | 35117 ft | 456 kts | 136° |
| 2026-05-09 11:33 | 50.76044 | 8.15029 | 35114 ft | 452 kts | 149° |
| 2026-05-09 11:34 | 50.70735 | 8.20370 | 35118 ft | 453 kts | 149° |
| 2026-05-09 11:34 | 50.65419 | 8.25709 | 35114 ft | 453 kts | 149° |
| 2026-05-09 11:35 | 50.60095 | 8.31044 | 35117 ft | 453 kts | 149° |
| 2026-05-09 11:35 | 50.54792 | 8.36334 | 35115 ft | 454 kts | 149° |
| 2026-05-09 11:36 | 50.49456 | 8.41648 | 35118 ft | 454 kts | 149° |
| 2026-05-09 11:36 | 50.44110 | 8.46958 | 35115 ft | 454 kts | 149° |
| 2026-05-09 11:37 | 50.38758 | 8.52245 | 35117 ft | 454 kts | 149° |
| 2026-05-09 11:37 | 50.33316 | 8.57244 | 35115 ft | 454 kts | 153° |
| 2026-05-09 11:38 | 50.30522 | 8.59565 | 35011 ft | 455 kts | 154° |
| 2026-05-09 11:38 | 50.27716 | 8.61826 | 34817 ft | 454 kts | 154° |
| 2026-05-09 11:38 | 50.22106 | 8.66350 | 34295 ft | 456 kts | 153° |
| 2026-05-09 11:39 | 50.19290 | 8.68667 | 33946 ft | 454 kts | 153° |
| 2026-05-09 11:39 | 50.16492 | 8.70995 | 33709 ft | 455 kts | 153° |
| 2026-05-09 11:39 | 50.13740 | 8.73298 | 33488 ft | 455 kts | 153° |
| 2026-05-09 11:40 | 50.08140 | 8.77983 | 33049 ft | 457 kts | 152° |
| 2026-05-09 11:40 | 50.05437 | 8.80627 | 32825 ft | 458 kts | 144° |
| 2026-05-09 11:40 | 50.02988 | 8.83824 | 32601 ft | 460 kts | 138° |
| 2026-05-09 11:40 | 50.00627 | 8.87181 | 32395 ft | 461 kts | 138° |
| 2026-05-09 11:41 | 49.98282 | 8.90502 | 32182 ft | 461 kts | 138° |
| 2026-05-09 11:41 | 49.95908 | 8.93853 | 31968 ft | 462 kts | 138° |
| 2026-05-09 11:41 | 49.93523 | 8.97211 | 31748 ft | 463 kts | 138° |
| 2026-05-09 11:41 | 49.91138 | 9.00565 | 31536 ft | 463 kts | 138° |
| 2026-05-09 11:42 | 49.88753 | 9.03912 | 31329 ft | 464 kts | 138° |
| 2026-05-09 11:42 | 49.86357 | 9.07269 | 31120 ft | 465 kts | 138° |
| 2026-05-09 11:42 | 49.83960 | 9.10627 | 30824 ft | 467 kts | 137° |
| 2026-05-09 11:42 | 49.81538 | 9.14017 | 30611 ft | 469 kts | 136° |
| 2026-05-09 11:43 | 49.79118 | 9.17404 | 30307 ft | 469 kts | 136° |
| 2026-05-09 11:43 | 49.76708 | 9.20777 | 29978 ft | 467 kts | 136° |
| 2026-05-09 11:43 | 49.74299 | 9.24137 | 29616 ft | 464 kts | 136° |
| 2026-05-09 11:43 | 49.71907 | 9.27468 | 29283 ft | 462 kts | 136° |
| 2026-05-09 11:44 | 49.69524 | 9.30784 | 28947 ft | 459 kts | 136° |
| 2026-05-09 11:44 | 49.67154 | 9.34071 | 28619 ft | 457 kts | 136° |
| 2026-05-09 11:44 | 49.64819 | 9.37300 | 28286 ft | 454 kts | 137° |
| 2026-05-09 11:44 | 49.62457 | 9.40581 | 27965 ft | 451 kts | 135° |
| 2026-05-09 11:45 | 49.60320 | 9.44095 | 27649 ft | 447 kts | 129° |
| 2026-05-09 11:45 | 49.58282 | 9.47710 | 27332 ft | 445 kts | 129° |
| 2026-05-09 11:45 | 49.56277 | 9.51246 | 27030 ft | 443 kts | 129° |
| 2026-05-09 11:45 | 49.54222 | 9.54848 | 26721 ft | 441 kts | 130° |
| 2026-05-09 11:46 | 49.52221 | 9.58338 | 26430 ft | 439 kts | 130° |
| 2026-05-09 11:46 | 49.50207 | 9.61847 | 26138 ft | 437 kts | 130° |
| 2026-05-09 11:46 | 49.48196 | 9.65357 | 25845 ft | 435 kts | 130° |
| 2026-05-09 11:46 | 49.46201 | 9.68840 | 25566 ft | 433 kts | 130° |
| 2026-05-09 11:47 | 49.44209 | 9.72313 | 25286 ft | 431 kts | 130° |
| 2026-05-09 11:47 | 49.42235 | 9.75750 | 25082 ft | 429 kts | 130° |
| 2026-05-09 11:47 | 49.40926 | 9.78026 | 25110 ft | 429 kts | 130° |
| 2026-05-09 11:47 | 49.38957 | 9.81450 | 25110 ft | 429 kts | 130° |
| 2026-05-09 11:48 | 49.36971 | 9.84900 | 25109 ft | 429 kts | 130° |
| 2026-05-09 11:48 | 49.34345 | 9.89436 | 25113 ft | 429 kts | 130° |
| 2026-05-09 11:48 | 49.33003 | 9.91745 | 25113 ft | 430 kts | 130° |
| 2026-05-09 11:48 | 49.31018 | 9.95156 | 25108 ft | 430 kts | 130° |
| 2026-05-09 11:49 | 49.29028 | 9.98576 | 25109 ft | 430 kts | 130° |
| 2026-05-09 11:49 | 49.27037 | 10.01993 | 25110 ft | 430 kts | 130° |
| 2026-05-09 11:49 | 49.25044 | 10.05415 | 25111 ft | 430 kts | 130° |
| 2026-05-09 11:49 | 49.23080 | 10.08781 | 25114 ft | 430 kts | 130° |
| 2026-05-09 11:50 | 49.21084 | 10.12201 | 25117 ft | 430 kts | 130° |
| 2026-05-09 11:50 | 49.19088 | 10.15612 | 25122 ft | 430 kts | 130° |
| 2026-05-09 11:50 | 49.17088 | 10.19023 | 25127 ft | 430 kts | 130° |
| 2026-05-09 11:50 | 49.15085 | 10.22436 | 25119 ft | 430 kts | 130° |
| 2026-05-09 11:51 | 49.13076 | 10.25837 | 25056 ft | 431 kts | 131° |
| 2026-05-09 11:51 | 49.11071 | 10.29139 | 24474 ft | 429 kts | 132° |
| 2026-05-09 11:51 | 49.09024 | 10.32429 | 23889 ft | 425 kts | 133° |
| 2026-05-09 11:51 | 49.07008 | 10.35626 | 23288 ft | 422 kts | 133° |
| 2026-05-09 11:52 | 49.05006 | 10.38789 | 22746 ft | 406 kts | 133° |
| 2026-05-09 11:52 | 49.03095 | 10.41815 | 22280 ft | 387 kts | 133° |
| 2026-05-09 11:52 | 49.01231 | 10.44787 | 21806 ft | 381 kts | 133° |
| 2026-05-09 11:52 | 48.99406 | 10.47709 | 21359 ft | 380 kts | 133° |
| 2026-05-09 11:53 | 48.97593 | 10.50607 | 20918 ft | 378 kts | 133° |
| 2026-05-09 11:53 | 48.95761 | 10.53530 | 20359 ft | 393 kts | 134° |
| 2026-05-09 11:53 | 48.93863 | 10.56556 | 19742 ft | 396 kts | 134° |
| 2026-05-09 11:53 | 48.91960 | 10.59590 | 19130 ft | 396 kts | 134° |
| 2026-05-09 11:54 | 48.90058 | 10.62613 | 18526 ft | 395 kts | 134° |
| 2026-05-09 11:54 | 48.88158 | 10.65626 | 17858 ft | 395 kts | 134° |
| 2026-05-09 11:54 | 48.86252 | 10.68648 | 17194 ft | 395 kts | 134° |
| 2026-05-09 11:54 | 48.84354 | 10.71650 | 16538 ft | 394 kts | 135° |
| 2026-05-09 11:55 | 48.82453 | 10.74651 | 15895 ft | 394 kts | 135° |
| 2026-05-09 11:56 | 48.73033 | 10.89468 | 12952 ft | 368 kts | 135° |
| 2026-05-09 11:56 | 48.71322 | 10.92146 | 12810 ft | 340 kts | 135° |
| 2026-05-09 11:56 | 48.69739 | 10.94625 | 12679 ft | 317 kts | 135° |
| 2026-05-09 11:57 | 48.68251 | 10.96951 | 12542 ft | 297 kts | 135° |
| 2026-05-09 11:57 | 48.66851 | 10.99131 | 12411 ft | 280 kts | 136° |
| 2026-05-09 11:57 | 48.65520 | 11.01197 | 12098 ft | 271 kts | 136° |
| 2026-05-09 11:57 | 48.64209 | 11.03229 | 11657 ft | 268 kts | 136° |
| 2026-05-09 11:58 | 48.62932 | 11.05205 | 11209 ft | 266 kts | 135° |
| 2026-05-09 11:58 | 48.61643 | 11.07201 | 10760 ft | 264 kts | 136° |
| 2026-05-09 11:58 | 48.60362 | 11.09182 | 10327 ft | 262 kts | 136° |
| 2026-05-09 11:58 | 48.59099 | 11.11137 | 10118 ft | 260 kts | 136° |
| 2026-05-09 11:59 | 48.57790 | 11.13031 | 10125 ft | 261 kts | 142° |
| 2026-05-09 11:59 | 48.56314 | 11.14615 | 10122 ft | 260 kts | 148° |
| 2026-05-09 11:59 | 48.54808 | 11.16138 | 10111 ft | 260 kts | 148° |
| 2026-05-09 11:59 | 48.53354 | 11.17754 | 10109 ft | 262 kts | 135° |
| 2026-05-09 12:00 | 48.52444 | 11.20118 | 10119 ft | 264 kts | 105° |
| 2026-05-09 12:00 | 48.52317 | 11.22871 | 10117 ft | 266 kts | 87° |
| 2026-05-09 12:00 | 48.52461 | 11.25657 | 10115 ft | 266 kts | 85° |
| 2026-05-09 12:00 | 48.52634 | 11.28430 | 10122 ft | 266 kts | 84° |
| 2026-05-09 12:01 | 48.52809 | 11.31211 | 10113 ft | 266 kts | 84° |
| 2026-05-09 12:01 | 48.52910 | 11.34019 | 10109 ft | 266 kts | 97° |
| 2026-05-09 12:01 | 48.52410 | 11.36664 | 10121 ft | 265 kts | 112° |
| 2026-05-09 12:01 | 48.51700 | 11.39233 | 10117 ft | 265 kts | 114° |
| 2026-05-09 12:02 | 48.50973 | 11.41775 | 10123 ft | 265 kts | 114° |
| 2026-05-09 12:02 | 48.50238 | 11.44337 | 10121 ft | 265 kts | 114° |
| 2026-05-09 12:02 | 48.49504 | 11.46886 | 10118 ft | 265 kts | 114° |
| 2026-05-09 12:02 | 48.48781 | 11.49393 | 9783 ft | 260 kts | 114° |
| 2026-05-09 12:03 | 48.47987 | 11.51844 | 9244 ft | 260 kts | 123° |
| 2026-05-09 12:03 | 48.46727 | 11.53767 | 8550 ft | 260 kts | 152° |
| 2026-05-09 12:03 | 48.45013 | 11.54497 | 7969 ft | 255 kts | 182° |
| 2026-05-09 12:03 | 48.43334 | 11.53849 | 7503 ft | 249 kts | 211° |
| 2026-05-09 12:04 | 48.42091 | 11.52084 | 6976 ft | 248 kts | 237° |
| 2026-05-09 12:04 | 48.41558 | 11.49642 | 6438 ft | 249 kts | 267° |
| 2026-05-09 12:04 | 48.41632 | 11.47051 | 6038 ft | 244 kts | 275° |
| 2026-05-09 12:04 | 48.41800 | 11.44517 | 6009 ft | 243 kts | 275° |
| 2026-05-09 12:05 | 48.41979 | 11.41982 | 6017 ft | 244 kts | 275° |
| 2026-05-09 12:05 | 48.42161 | 11.39440 | 6020 ft | 244 kts | 276° |
| 2026-05-09 12:05 | 48.42342 | 11.36890 | 6031 ft | 245 kts | 276° |
| 2026-05-09 12:05 | 48.42393 | 11.34338 | 6008 ft | 244 kts | 266° |
| 2026-05-09 12:06 | 48.42280 | 11.31796 | 6006 ft | 244 kts | 265° |
| 2026-05-09 12:06 | 48.42145 | 11.29248 | 6001 ft | 244 kts | 264° |
| 2026-05-09 12:06 | 48.42008 | 11.26705 | 6003 ft | 244 kts | 264° |
| 2026-05-09 12:06 | 48.41872 | 11.24167 | 5999 ft | 243 kts | 264° |
| 2026-05-09 12:07 | 48.41644 | 11.21682 | 5980 ft | 242 kts | 249° |
| 2026-05-09 12:07 | 48.40724 | 11.19617 | 5997 ft | 239 kts | 218° |
| 2026-05-09 12:07 | 48.39242 | 11.18600 | 5994 ft | 236 kts | 186° |
| 2026-05-09 12:07 | 48.37636 | 11.18923 | 5991 ft | 235 kts | 154° |
| 2026-05-09 12:08 | 48.36401 | 11.20479 | 5994 ft | 235 kts | 124° |
| 2026-05-09 12:08 | 48.35630 | 11.22648 | 6001 ft | 236 kts | 115° |
| 2026-05-09 12:08 | 48.34950 | 11.24896 | 5980 ft | 236 kts | 114° |
| 2026-05-09 12:08 | 48.34281 | 11.27143 | 6002 ft | 236 kts | 114° |
| 2026-05-09 12:09 | 48.33609 | 11.29402 | 5993 ft | 233 kts | 114° |
| 2026-05-09 12:09 | 48.32992 | 11.31566 | 6024 ft | 216 kts | 108° |
| 2026-05-09 12:09 | 48.32853 | 11.33690 | 6028 ft | 195 kts | 85° |
| 2026-05-09 12:10 | 48.33300 | 11.39190 | 6024 ft | 172 kts | 84° |
| 2026-05-09 12:10 | 48.33444 | 11.40974 | 6015 ft | 172 kts | 84° |
| 2026-05-09 12:10 | 48.33588 | 11.42765 | 5953 ft | 173 kts | 84° |
| 2026-05-09 12:11 | 48.33732 | 11.44548 | 5690 ft | 170 kts | 84° |
| 2026-05-09 12:11 | 48.33873 | 11.46304 | 5465 ft | 169 kts | 84° |
| 2026-05-09 12:11 | 48.34013 | 11.48048 | 5243 ft | 168 kts | 84° |
| 2026-05-09 12:11 | 48.34151 | 11.49782 | 5019 ft | 166 kts | 84° |
| 2026-05-09 12:12 | 48.34288 | 11.51495 | 4800 ft | 165 kts | 84° |
| 2026-05-09 12:12 | 48.34425 | 11.53208 | 4584 ft | 165 kts | 83° |
| 2026-05-09 12:12 | 48.34561 | 11.54920 | 4359 ft | 165 kts | 84° |
| 2026-05-09 12:12 | 48.34696 | 11.56622 | 4131 ft | 164 kts | 84° |
| 2026-05-09 12:13 | 48.34831 | 11.58326 | 3925 ft | 164 kts | 84° |
| 2026-05-09 12:13 | 48.34965 | 11.60018 | 3704 ft | 162 kts | 83° |
| 2026-05-09 12:13 | 48.35094 | 11.61648 | 3494 ft | 151 kts | 84° |
| 2026-05-09 12:13 | 48.35213 | 11.63160 | 3304 ft | 143 kts | 83° |
| 2026-05-09 12:14 | 48.35328 | 11.64616 | 3122 ft | 137 kts | 84° |
| 2026-05-09 12:14 | 48.35439 | 11.66026 | 2933 ft | 137 kts | 83° |
| 2026-05-09 12:14 | 48.35550 | 11.67451 | 2756 ft | 135 kts | 83° |
| 2026-05-09 12:14 | 48.35660 | 11.68855 | 2561 ft | 135 kts | 83° |
| 2026-05-09 12:15 | 48.35767 | 11.70218 | 2386 ft | 135 kts | 83° |
| 2026-05-09 12:15 | 48.35876 | 11.71619 | 2200 ft | 135 kts | 81° |
| 2026-05-09 12:15 | 48.35986 | 11.73028 | 2012 ft | 134 kts | 84° |
| 2026-05-09 12:15 | 48.36094 | 11.74415 | 1838 ft | 134 kts | 83° |
| 2026-05-09 12:16 | 48.36201 | 11.75803 | 1650 ft | 134 kts | 85° |
| 2026-05-09 12:16 | 48.36308 | 11.77188 | 1487 ft | 129 kts | 84° |
| 2026-05-09 12:16 | 48.36391 | 11.78337 | 1485 ft | 85 kts | 83° |